This is the latest recevied weather packets stored in our database for station/object KI5RAB. If no packets are shown the sender has not sent any weather packets the latest 10 day(s).
| Time | Temp. | Humidity | Pressure | Rain* | Wind** | Luminosity | Snow |
|---|---|---|---|---|---|---|---|
| 1777864928 | 21.11° C | 59% | 1020.6 hPa | 0 mm | - | 0 W/m² | - |
| 1777864625 | 21.11° C | 59% | 1020.4 hPa | 0 mm | - | 0 W/m² | - |
| 1777864321 | 20.56° C | 59% | 1020.4 hPa | 0 mm | - | 0 W/m² | - |
| 1777864018 | 20.56° C | 59% | 1020.8 hPa | 0 mm | - | 0 W/m² | - |
| 1777863715 | 20.56° C | 58% | 1020.2 hPa | 0 mm | - | 0 W/m² | - |
| 1777863411 | 20.56° C | 59% | 1020.4 hPa | 0 mm | - | 0 W/m² | - |
| 1777863108 | 19.44° C | 61% | 1020.4 hPa | 0 mm | - | 0 W/m² | - |
| 1777862806 | 18.89° C | 61% | 1020.5 hPa | 0 mm | - | 0 W/m² | - |
| 1777862502 | 18.33° C | 63% | 1020.4 hPa | 0 mm | - | 0 W/m² | - |
| 1777862199 | 18.33° C | 64% | 1020.5 hPa | 0 mm | - | 0 W/m² | - |
| 1777861895 | 18.33° C | 65% | 1020.3 hPa | 0 mm | - | 0 W/m² | - |
| 1777861591 | 18.33° C | 65% | 1020.5 hPa | 0 mm | - | 0 W/m² | - |
| 1777861287 | 18.89° C | 63% | 1020.3 hPa | 0 mm | - | 0 W/m² | - |
| 1777860986 | 18.89° C | 62% | 1020.4 hPa | 0 mm | - | 0 W/m² | - |
| 1777860681 | 19.44° C | 60% | 1020.4 hPa | 0 mm | - | 0 W/m² | - |
| 1777860374 | 19.44° C | 59% | 1020.6 hPa | 0 mm | - | 0 W/m² | - |
| 1777860070 | 20° C | 56% | 1020.4 hPa | 0 mm | - | 0 W/m² | - |
| 1777859766 | 20° C | 54% | 1020.3 hPa | 0 mm | - | 0 W/m² | - |
| 1777859462 | 20.56° C | 55% | 1020.2 hPa | 0 mm | - | 0 W/m² | - |
| 1777859158 | 21.11° C | 52% | 1020.2 hPa | 0 mm | - | 0 W/m² | - |
| 1777858856 | 21.11° C | 51% | 1020.1 hPa | 0 mm | - | 0 W/m² | - |
| 1777858553 | 21.67° C | 50% | 1020 hPa | 0 mm | - | 0 W/m² | - |
| 1777858250 | 21.67° C | 50% | 1019.8 hPa | 0 mm | - | 0 W/m² | - |
| 1777857947 | 21.67° C | 49% | 1020.1 hPa | 0 mm | - | 0 W/m² | - |
| 1777857645 | 22.22° C | 48% | 1020 hPa | 0 mm | - | 1 W/m² | - |
* Rain latest hour (hover to see other rain measurements)
** Current wind speed in m/s (hover to see current wind gust speed)